Time;durP1;ratioP1;P1;durP2;ratioP2;P2;SDS_P1;SDS_P2;PMS_P1;PMS_P2;Temp;Humidity;BMP_temperature;BMP_pressure;BME280_temperature;BME280_humidity;BME280_pressure;Samples;Min_cycle;Max_cycle;Signal;HPM_P1;HPM_P2
2022/10/09 00:01:30;;;;;;;2.47;2.28;;;;;;;13.85;88.11;100133.25;5074978;28;20044;-67
2022/10/09 00:04:01;;;;;;;4.97;2.95;;;;;;;13.90;87.95;100141.78;5075233;28;20132;-67
2022/10/09 00:06:32;;;;;;;3.10;2.70;;;;;;;13.87;87.67;100141.78;5074975;28;20049;-67
2022/10/09 00:09:02;;;;;;;2.33;2.03;;;;;;;13.87;87.63;100144.34;5075184;28;20063;-67
2022/10/09 00:11:32;;;;;;;6.50;4.18;;;;;;;13.88;87.53;100148.66;5074776;28;20051;-67
2022/10/09 00:14:01;;;;;;;2.83;2.15;;;;;;;13.88;87.79;100149.50;5074441;28;20394;-67
2022/10/09 00:16:30;;;;;;;4.63;2.70;;;;;;;13.86;87.69;100151.22;5074657;28;20131;-67
2022/10/09 00:19:00;;;;;;;5.15;3.65;;;;;;;13.85;87.73;100153.78;5074921;28;20044;-67
2022/10/09 00:21:32;;;;;;;1.73;1.63;;;;;;;13.80;87.50;100155.53;5074851;28;20044;-67
2022/10/09 00:24:02;;;;;;;2.85;2.22;;;;;;;13.81;87.33;100159.81;5074511;28;20048;-67
2022/10/09 00:26:32;;;;;;;1.30;1.20;;;;;;;13.73;87.50;100146.16;5074845;28;20106;-67
2022/10/09 00:29:00;;;;;;;4.72;2.58;;;;;;;13.68;87.87;100137.63;5074753;28;20491;-67
2022/10/09 00:31:30;;;;;;;3.75;2.95;;;;;;;13.61;88.01;100134.28;5074989;28;20421;-67
2022/10/09 00:34:00;;;;;;;2.92;2.00;;;;;;;13.66;87.76;100142.78;5074705;28;20046;-67
2022/10/09 00:36:28;;;;;;;3.75;2.05;;;;;;;13.71;87.72;100137.63;5074257;28;20052;-67
2022/10/09 00:38:57;;;;;;;6.68;4.03;;;;;;;13.71;88.07;100142.75;5074200;28;20047;-67
2022/10/09 00:41:29;;;;;;;4.73;2.17;;;;;;;13.72;87.77;100136.78;5074485;28;20513;-67
2022/10/09 00:44:00;;;;;;;4.32;3.42;;;;;;;13.69;87.68;100136.78;5073960;28;20049;-67
2022/10/09 00:46:34;;;;;;;3.53;3.22;;;;;;;13.66;87.98;100136.81;5074070;28;20123;-67
2022/10/09 00:49:14;;;;;;;7.28;3.15;;;;;;;13.61;87.68;100146.22;5074413;28;20406;-67
2022/10/09 00:51:46;;;;;;;1.52;1.42;;;;;;;13.57;87.93;100154.81;5074155;28;20048;-67
2022/10/09 00:54:18;;;;;;;2.60;2.33;;;;;;;13.56;88.04;100155.66;5073967;28;20079;-67
2022/10/09 00:56:48;;;;;;;3.75;3.35;;;;;;;13.54;88.10;100157.38;5073940;28;20060;-67
2022/10/09 00:59:17;;;;;;;3.85;2.53;;;;;;;13.53;88.23;100153.13;5074058;28;20094;-67
2022/10/09 01:01:47;;;;;;;5.82;4.05;;;;;;;13.58;88.18;100164.22;5073837;28;20537;-67
2022/10/09 01:04:17;;;;;;;3.25;2.55;;;;;;;13.58;88.12;100169.34;5073821;28;20136;-67
2022/10/09 01:07:02;;;;;;;2.80;2.42;;;;;;;13.53;88.25;100165.97;5073751;28;20048;-67
2022/10/09 01:09:40;;;;;;;3.78;3.05;;;;;;;13.47;88.62;100148.03;5074055;28;20402;-67
2022/10/09 01:12:15;;;;;;;2.88;2.67;;;;;;;13.58;88.59;100134.28;5073966;28;20106;-67
2022/10/09 01:14:51;;;;;;;3.25;2.95;;;;;;;13.60;88.89;100129.16;5073967;28;20051;-67
2022/10/09 01:17:29;;;;;;;5.53;2.85;;;;;;;13.61;88.71;100153.94;5073611;28;20051;-67
2022/10/09 01:20:21;;;;;;;6.22;3.85;;;;;;;13.60;88.86;100158.22;5073624;28;20486;-67
2022/10/09 01:23:07;;;;;;;6.10;2.00;;;;;;;13.59;88.75;100158.22;5073941;28;20044;-67
2022/10/09 01:25:44;;;;;;;3.85;2.53;;;;;;;13.62;88.62;100150.50;5073655;28;20051;-67
2022/10/09 01:28:16;;;;;;;4.68;2.50;;;;;;;13.61;88.53;100151.38;5073953;28;20127;-67
2022/10/09 01:30:46;;;;;;;3.17;2.28;;;;;;;13.59;88.46;100150.53;5073554;28;20045;-67
2022/10/09 01:33:16;;;;;;;2.58;2.17;;;;;;;13.56;88.76;100140.28;5073538;28;20052;-67
2022/10/09 01:35:46;;;;;;;5.35;3.55;;;;;;;13.54;88.81;100134.31;5073779;28;20072;-67
2022/10/09 01:38:17;;;;;;;4.13;3.60;;;;;;;13.54;88.95;100152.25;5072358;28;20052;-67
2022/10/09 01:40:46;;;;;;;2.85;2.45;;;;;;;13.55;88.70;100165.09;5074089;28;20067;-67
2022/10/09 01:43:16;;;;;;;2.13;1.93;;;;;;;13.57;88.71;100172.78;5073962;28;20502;-67
2022/10/09 01:45:47;;;;;;;2.13;1.92;;;;;;;13.54;88.95;100167.66;5073732;28;20468;-67
2022/10/09 01:48:21;;;;;;;4.57;2.10;;;;;;;13.50;88.97;100160.84;5073410;28;20510;-67
2022/10/09 01:50:56;;;;;;;5.03;2.60;;;;;;;13.49;88.92;100148.88;5073370;28;20052;-67
2022/10/09 01:53:26;;;;;;;3.85;2.72;;;;;;;13.49;88.45;100148.88;5073640;28;20056;-67
2022/10/09 01:56:02;;;;;;;5.18;3.50;;;;;;;13.43;88.46;100155.75;5074959;28;20044;-67
2022/10/09 01:58:35;;;;;;;3.20;2.42;;;;;;;13.42;88.87;100163.44;5077381;28;20052;-67
2022/10/09 02:01:07;;;;;;;3.95;3.25;;;;;;;13.38;88.25;100147.22;5077630;28;20044;-67
2022/10/09 02:03:41;;;;;;;3.17;2.83;;;;;;;13.29;88.52;100123.34;5077592;28;20118;-67
2022/10/09 02:06:14;;;;;;;3.15;2.88;;;;;;;13.25;88.08;100157.53;5077511;28;20045;-67
2022/10/09 02:08:46;;;;;;;7.05;3.63;;;;;;;13.23;88.23;100182.31;5077523;28;20048;-67
2022/10/09 02:11:16;;;;;;;7.43;2.15;;;;;;;13.16;88.13;100186.63;5077160;28;20063;-67
2022/10/09 02:13:51;;;;;;;4.13;2.60;;;;;;;13.19;88.55;100180.63;5075711;28;20083;-67
2022/10/09 02:16:28;;;;;;;3.60;2.67;;;;;;;13.18;88.42;100174.63;5077083;28;20041;-67
2022/10/09 02:19:08;;;;;;;4.70;2.95;;;;;;;13.16;88.29;100168.66;5076905;28;20048;-67
2022/10/09 02:21:42;;;;;;;4.68;2.80;;;;;;;13.18;88.18;100164.38;5077175;28;20379;-67
2022/10/09 02:24:17;;;;;;;3.72;3.25;;;;;;;13.13;88.03;100172.94;5077196;28;20102;-67
2022/10/09 02:26:46;;;;;;;3.17;2.88;;;;;;;13.09;88.53;100176.38;5076792;28;20049;-67
2022/10/09 02:29:17;;;;;;;5.05;2.47;;;;;;;13.14;88.24;100162.69;5075707;28;20405;-67
2022/10/09 02:31:47;;;;;;;6.40;4.00;;;;;;;13.22;88.59;100160.94;5077036;28;20398;-67
2022/10/09 02:34:18;;;;;;;4.10;3.17;;;;;;;13.28;88.95;100168.63;5076681;28;20510;-67
2022/10/09 02:36:48;;;;;;;5.25;2.10;;;;;;;13.25;88.59;100166.06;5076650;28;20824;-67
2022/10/09 02:39:17;;;;;;;3.63;2.03;;;;;;;13.37;88.88;100191.66;5076511;28;20048;-66
2022/10/09 02:41:45;;;;;;;2.20;2.00;;;;;;;13.43;88.93;100189.09;5076510;28;20041;-66
2022/10/09 02:44:15;;;;;;;4.47;3.78;;;;;;;13.50;89.07;100187.34;5076444;28;20095;-67
2022/10/09 02:46:46;;;;;;;2.28;1.98;;;;;;;13.54;88.80;100200.97;5076401;28;20499;-66
2022/10/09 02:49:14;;;;;;;1.83;1.70;;;;;;;13.56;88.67;100196.69;5076614;28;20514;-67
2022/10/09 02:51:43;;;;;;;2.53;1.90;;;;;;;13.57;88.51;100209.53;5076600;28;20047;-67
2022/10/09 02:54:12;;;;;;;3.80;1.55;;;;;;;13.59;88.49;100212.94;5076570;28;20066;-66
2022/10/09 02:56:40;;;;;;;9.27;2.13;;;;;;;13.61;88.23;100225.75;5076590;28;20433;-67
2022/10/09 02:59:09;;;;;;;1.55;1.45;;;;;;;13.62;87.78;100237.72;5076173;28;20095;-67
2022/10/09 03:01:39;;;;;;;3.17;2.65;;;;;;;13.63;87.87;100234.31;5076156;28;20036;-66
2022/10/09 03:04:08;;;;;;;2.28;1.50;;;;;;;13.64;87.45;100215.47;5076116;28;20494;-67
2022/10/09 03:06:36;;;;;;;3.47;2.80;;;;;;;13.66;87.68;100213.75;5076315;28;20121;-67
2022/10/09 03:09:06;;;;;;;1.05;1.00;;;;;;;13.63;87.48;100224.06;5076309;28;20502;-67
2022/10/09 03:11:34;;;;;;;3.35;2.53;;;;;;;13.59;86.99;100225.75;5076033;28;20055;-67
2022/10/09 03:14:03;;;;;;;1.75;1.48;;;;;;;13.61;86.81;100225.75;5075793;28;20053;-67
2022/10/09 03:16:32;;;;;;;2.42;2.13;;;;;;;13.58;86.76;100230.91;5075781;28;20047;-67
2022/10/09 03:19:02;;;;;;;16.10;4.07;;;;;;;13.46;86.64;100215.56;5075883;28;20094;-67
2022/10/09 03:21:31;;;;;;;4.88;2.15;;;;;;;13.50;86.16;100227.50;5075792;28;20044;-67
2022/10/09 03:24:00;;;;;;;3.03;1.92;;;;;;;13.44;86.11;100229.25;5076036;28;20037;-67
2022/10/09 03:26:29;;;;;;;2.83;2.47;;;;;;;13.42;86.17;100228.41;5076060;28;20395;-67
2022/10/09 03:28:57;;;;;;;5.80;2.47;;;;;;;13.44;86.08;100228.38;5075683;28;20044;-67
2022/10/09 03:31:27;;;;;;;2.80;2.55;;;;;;;13.42;86.04;100236.09;5075567;28;20044;-67
2022/10/09 03:34:17;;;;;;;2.40;1.83;;;;;;;13.44;86.26;100233.50;5075474;28;20094;-67
2022/10/09 03:36:46;;;;;;;1.45;1.20;;;;;;;13.44;85.66;100239.50;5075771;28;20049;-66
2022/10/09 03:39:14;;;;;;;11.65;2.58;;;;;;;13.44;85.86;100249.75;5075449;28;20068;-67
2022/10/09 03:41:43;;;;;;;2.53;1.27;;;;;;;13.46;85.45;100256.59;5075377;28;20056;-66
2022/10/09 03:44:12;;;;;;;1.45;1.33;;;;;;;13.46;85.31;100251.47;5075659;28;20123;-67
2022/10/09 03:46:40;;;;;;;2.00;1.85;;;;;;;13.44;84.88;100254.88;5075325;28;20044;-67
2022/10/09 03:49:09;;;;;;;1.23;0.90;;;;;;;13.42;84.61;100256.59;5075546;28;20045;-67
2022/10/09 03:51:39;;;;;;;2.17;1.57;;;;;;;13.42;84.49;100258.31;5075589;28;20115;-67
2022/10/09 03:54:08;;;;;;;1.92;1.55;;;;;;;13.39;84.38;100272.00;5075212;28;20053;-67
2022/10/09 03:56:37;;;;;;;1.90;1.73;;;;;;;13.37;84.12;100270.28;5075070;28;20136;-67
2022/10/09 03:59:08;;;;;;;1.57;1.20;;;;;;;13.35;84.18;100275.44;5075145;28;20521;-67
2022/10/09 04:01:37;;;;;;;2.00;1.58;;;;;;;13.33;83.81;100277.16;5075315;28;20044;-67
2022/10/09 04:04:05;;;;;;;3.17;1.98;;;;;;;13.32;83.50;100275.44;5075328;28;20032;-67
2022/10/09 04:06:34;;;;;;;1.70;1.33;;;;;;;13.24;83.23;100269.47;5075198;28;20041;-67
2022/10/09 04:09:04;;;;;;;2.15;1.73;;;;;;;13.26;83.41;100280.59;5074960;28;20042;-67
2022/10/09 04:11:33;;;;;;;1.67;1.52;;;;;;;13.23;83.29;100280.59;5074795;28;20127;-67
2022/10/09 04:14:03;;;;;;;1.63;1.45;;;;;;;13.20;82.93;100285.72;5074669;28;20390;-67
2022/10/09 04:16:31;;;;;;;3.35;1.70;;;;;;;13.17;82.70;100295.94;5074665;28;20367;-67
2022/10/09 04:19:01;;;;;;;;;;;;;;;13.14;82.70;100293.41;5074607;28;20044;-67
2022/10/09 04:21:29;;;;;;;1.83;1.63;;;;;;;13.09;82.67;100292.56;5074876;28;20006;-67
2022/10/09 04:23:58;;;;;;;2.05;1.38;;;;;;;13.08;82.75;100298.53;5074839;28;20064;-67
2022/10/09 04:26:28;;;;;;;2.83;1.75;;;;;;;13.06;82.46;100307.94;5074555;28;20044;-68
2022/10/09 04:28:57;;;;;;;1.20;1.10;;;;;;;13.06;82.60;100312.19;5074472;28;20066;-67
2022/10/09 04:31:25;;;;;;;0.65;0.65;;;;;;;12.97;82.18;100305.34;5074974;28;20392;-68
2022/10/09 04:33:55;;;;;;;2.22;1.77;;;;;;;12.88;82.29;100307.94;5074369;28;20041;-67
2022/10/09 04:36:24;;;;;;;2.50;1.95;;;;;;;12.76;81.93;100307.91;5074506;28;20052;-68
2022/10/09 04:38:52;;;;;;;2.40;2.20;;;;;;;12.74;81.99;100307.06;5074257;28;20043;-67
2022/10/09 04:41:21;;;;;;;1.33;1.23;;;;;;;12.72;82.32;100306.19;5074179;28;20037;-67
2022/10/09 04:43:55;;;;;;;1.60;1.48;;;;;;;12.70;82.21;100302.78;5074592;28;20071;-67
2022/10/09 04:46:24;;;;;;;2.10;1.70;;;;;;;12.71;82.32;100309.63;5074465;28;20055;-67
2022/10/09 04:48:52;;;;;;;3.92;3.53;;;;;;;12.66;81.93;100306.19;5074072;28;20044;-67
2022/10/09 04:51:21;;;;;;;1.30;1.20;;;;;;;12.64;81.88;100310.47;5074284;28;20178;-67
2022/10/09 04:53:49;;;;;;;1.70;1.60;;;;;;;12.63;81.86;100308.75;5074202;28;20051;-67
2022/10/09 04:56:20;;;;;;;1.63;1.10;;;;;;;12.61;81.60;100308.75;5074776;28;20052;-67
2022/10/09 04:58:49;;;;;;;1.02;0.95;;;;;;;12.60;81.01;100311.31;5073910;28;20040;-67
2022/10/09 05:01:22;;;;;;;0.38;0.38;;;;;;;12.64;81.24;100318.16;5073877;28;20044;-67
2022/10/09 05:03:52;;;;;;;0.70;0.70;;;;;;;12.64;81.02;100316.44;5074132;28;20049;-67
2022/10/09 05:06:22;;;;;;;2.00;1.77;;;;;;;12.63;80.82;100324.13;5074131;28;20052;-67
2022/10/09 05:08:50;;;;;;;;;;;;;;;12.63;80.60;100321.56;5074209;28;20055;-67
2022/10/09 05:11:21;;;;;;;2.78;0.93;;;;;;;12.61;80.51;100318.16;5073761;28;19920;-67
2022/10/09 05:13:53;;;;;;;0.40;0.40;;;;;;;12.61;79.92;100319.00;5073492;28;20048;-67
2022/10/09 05:16:26;;;;;;;0.65;0.65;;;;;;;12.62;79.69;100325.81;5074077;28;20040;-67
2022/10/09 05:18:56;;;;;;;2.28;1.48;;;;;;;12.64;79.34;100328.41;5073985;28;20059;-68
2022/10/09 05:21:25;;;;;;;3.10;0.73;;;;;;;12.67;78.94;100328.38;5074021;28;20041;-67
2022/10/09 05:23:54;;;;;;;0.90;0.77;;;;;;;12.65;78.86;100328.38;5073593;28;20040;-67
2022/10/09 05:26:26;;;;;;;0.40;0.40;;;;;;;12.67;78.30;100333.50;5073904;28;20076;-67
2022/10/09 05:28:55;;;;;;;0.60;0.60;;;;;;;12.68;78.16;100332.66;5073929;28;20045;-67
2022/10/09 05:31:27;;;;;;;1.45;1.35;;;;;;;12.67;77.94;100338.63;5072721;28;20051;-67
2022/10/09 05:33:58;;;;;;;2.90;1.55;;;;;;;12.67;77.92;100348.88;5073631;28;20045;-67
2022/10/09 05:36:27;;;;;;;1.20;0.70;;;;;;;12.68;77.73;100350.59;5073496;28;20051;-67
2022/10/09 05:38:59;;;;;;;0.40;0.40;;;;;;;12.70;77.67;100348.88;5073428;28;20076;-67
2022/10/09 05:41:29;;;;;;;0.85;0.85;;;;;;;12.71;77.54;100355.72;5073498;28;20277;-67
2022/10/09 05:44:00;;;;;;;;;;;;;;;12.70;77.77;100354.00;5073852;28;20048;-67
2022/10/09 05:46:31;;;;;;;0.80;0.80;;;;;;;12.73;77.53;100359.16;5073400;28;19960;-67
2022/10/09 05:49:04;;;;;;;0.60;0.60;;;;;;;12.77;76.90;100361.72;5073708;28;20117;-67
2022/10/09 05:51:34;;;;;;;0.70;0.70;;;;;;;12.83;76.68;100370.25;5073371;28;20040;-67
2022/10/09 05:54:03;;;;;;;1.75;1.05;;;;;;;12.92;76.85;100370.25;5073373;28;20078;-67
2022/10/09 05:56:33;;;;;;;1.10;1.08;;;;;;;13.03;76.61;100374.53;5073255;28;20093;-67
2022/10/09 05:59:05;;;;;;;0.47;0.47;;;;;;;13.14;76.49;100372.00;5073649;28;20572;-68
2022/10/09 06:01:36;;;;;;;1.17;1.08;;;;;;;13.29;76.29;100375.41;5073573;28;20050;-67
2022/10/09 06:04:09;;;;;;;2.22;0.73;;;;;;;13.47;75.88;100372.00;5073254;28;20115;-67
2022/10/09 06:06:39;;;;;;;0.43;0.43;;;;;;;13.55;75.94;100374.53;5073197;28;20052;-67
2022/10/09 06:09:09;;;;;;;2.20;0.88;;;;;;;13.62;74.77;100373.69;5072011;28;20076;-67
2022/10/09 06:11:39;;;;;;;0.70;0.70;;;;;;;13.71;74.36;100381.34;5073161;28;20548;-67
2022/10/09 06:14:10;;;;;;;1.13;1.02;;;;;;;13.77;73.97;100381.34;5072897;28;20053;-67
2022/10/09 06:16:42;;;;;;;0.30;0.30;;;;;;;13.85;73.18;100389.84;5072764;28;20040;-67
2022/10/09 06:19:14;;;;;;;1.00;0.85;;;;;;;13.95;73.32;100389.84;5073065;28;20037;-68
2022/10/09 06:21:43;;;;;;;0.95;0.90;;;;;;;14.01;72.24;100401.81;5072591;28;20049;-68
2022/10/09 06:24:19;;;;;;;1.17;1.05;;;;;;;14.08;71.89;100403.50;5072695;28;20571;-68
2022/10/09 06:26:55;;;;;;;2.78;2.13;;;;;;;14.19;71.80;100406.88;5072816;28;20086;-67
2022/10/09 06:29:24;;;;;;;0.30;0.30;;;;;;;14.26;71.52;100405.13;5073023;28;20037;-67
2022/10/09 06:31:54;;;;;;;0.32;0.32;;;;;;;14.35;71.02;100403.41;5071884;28;20090;-67
2022/10/09 06:34:23;;;;;;;0.60;0.60;;;;;;;14.39;70.35;100405.13;5072461;28;20040;-67
2022/10/09 06:36:52;;;;;;;1.33;0.93;;;;;;;14.48;70.00;100410.22;5073059;28;20045;-68
2022/10/09 06:39:21;;;;;;;0.70;0.70;;;;;;;14.56;69.70;100417.88;5072695;28;20507;-67
2022/10/09 06:41:49;;;;;;;1.13;0.82;;;;;;;14.64;69.42;100405.81;5074226;28;20036;-68
2022/10/09 06:44:38;;;;;;;1.02;0.95;;;;;;;14.69;68.73;100414.38;5076782;28;20055;-67
2022/10/09 06:47:08;;;;;;;0.70;0.70;;;;;;;14.71;68.47;100408.34;5076342;28;20044;-67
2022/10/09 06:49:38;;;;;;;0.47;0.47;;;;;;;14.77;67.70;100418.63;5076351;28;20135;-67
2022/10/09 06:52:06;;;;;;;0.65;0.65;;;;;;;14.78;67.31;100425.44;5076561;28;20059;-67
2022/10/09 06:54:35;;;;;;;0.60;0.60;;;;;;;14.81;66.58;100428.84;5089857;28;20036;-68
2022/10/09 06:57:04;;;;;;;0.40;0.40;;;;;;;14.84;66.52;100428.84;5096637;28;20036;-68
2022/10/09 06:59:33;;;;;;;1.23;1.08;;;;;;;14.94;66.14;100433.06;5096572;28;20105;-68
2022/10/09 07:02:01;;;;;;;2.10;1.10;;;;;;;14.97;66.03;100430.50;5096480;28;20052;-69
2022/10/09 07:04:31;;;;;;;0.50;0.50;;;;;;;15.03;65.82;100440.72;5096437;28;20569;-68
2022/10/09 07:07:01;;;;;;;0.60;0.60;;;;;;;15.06;65.16;100438.13;5096589;28;20502;-66
2022/10/09 07:09:30;;;;;;;0.32;0.32;;;;;;;15.03;64.30;100440.72;5096332;28;20044;-67
2022/10/09 07:21:51;;;;;;;0.73;0.73;;;;;;;15.38;63.77;100449.03;4559843;24;20270;-69
2022/10/09 07:24:23;;;;;;;0.60;0.50;;;;;;;15.46;63.87;100452.44;4845235;29;20384;-70
2022/10/09 07:26:54;;;;;;;0.45;0.45;;;;;;;15.53;63.23;100459.22;4844946;29;20058;-69
2022/10/09 07:29:23;;;;;;;0.60;0.60;;;;;;;15.59;63.04;100463.50;4845195;29;20137;-70
2022/10/09 07:31:52;;;;;;;0.40;0.40;;;;;;;15.62;62.76;100466.88;4844430;29;20110;-71
2022/10/09 07:34:20;;;;;;;0.80;0.80;;;;;;;15.70;62.78;100462.53;4845023;29;20393;-71
2022/10/09 07:36:49;;;;;;;0.40;0.40;;;;;;;15.70;61.93;100467.66;4844165;29;20053;-72
2022/10/09 07:39:19;;;;;;;1.77;0.75;;;;;;;15.74;62.15;100474.50;4843539;29;20046;-71
2022/10/09 07:41:51;;;;;;;0.60;0.60;;;;;;;15.76;61.85;100472.78;4844805;29;20058;-71
2022/10/09 07:44:20;;;;;;;0.90;0.88;;;;;;;15.74;61.26;100479.63;4844772;29;20474;-71
2022/10/09 07:46:50;;;;;;;0.68;0.68;;;;;;;15.79;61.21;100477.00;4844837;29;20050;-71
2022/10/09 07:49:19;;;;;;;0.50;0.50;;;;;;;15.83;61.51;100464.13;4845430;29;20366;-71
2022/10/09 07:51:47;;;;;;;0.30;0.30;;;;;;;15.93;61.06;100473.44;4844448;29;20042;-71
2022/10/09 07:54:16;;;;;;;0.80;0.73;;;;;;;15.96;61.04;100476.00;4843669;29;20154;-70
2022/10/09 07:56:46;;;;;;;6.37;0.93;;;;;;;16.06;60.91;100480.19;4844674;29;20038;-71
2022/10/09 07:59:16;;;;;;;0.57;0.57;;;;;;;16.19;60.87;100477.50;4842994;29;20102;-71
2022/10/09 08:01:44;;;;;;;;;;;;;;;16.27;60.48;100470.53;4844487;29;20510;-70
2022/10/09 08:04:13;;;;;;;0.65;0.60;;;;;;;16.28;59.62;100485.97;4843707;29;19977;-71
2022/10/09 08:06:42;;;;;;;0.70;0.70;;;;;;;16.30;59.39;100475.66;4843904;29;20053;-71
2022/10/09 08:09:10;;;;;;;0.60;0.60;;;;;;;16.30;59.30;100481.66;4844392;29;20124;-71
2022/10/09 08:11:40;;;;;;;0.40;0.40;;;;;;;16.36;59.16;100478.16;4844313;29;20053;-71
2022/10/09 08:14:12;;;;;;;0.88;0.70;;;;;;;16.46;58.93;100482.34;4844067;29;20061;-72
2022/10/09 08:16:47;;;;;;;0.40;0.40;;;;;;;16.53;58.32;100473.69;4844298;29;20111;-71
2022/10/09 08:19:16;;;;;;;0.52;0.52;;;;;;;16.49;57.55;100482.28;4843957;29;20056;-71
2022/10/09 08:21:47;;;;;;;0.70;0.60;;;;;;;16.52;57.56;100477.13;4843860;29;20137;-69
2022/10/09 08:24:16;;;;;;;0.40;0.40;;;;;;;16.52;57.34;100477.13;4844259;29;20060;-70
2022/10/09 08:26:44;;;;;;;0.50;0.50;;;;;;;16.53;56.74;100474.53;4843998;29;20036;-71
2022/10/09 08:29:15;;;;;;;0.60;0.60;;;;;;;16.64;56.91;100482.16;4843577;29;20140;-71
2022/10/09 08:31:45;;;;;;;0.75;0.65;;;;;;;16.60;56.54;100480.50;4843939;29;20483;-70
2022/10/09 08:34:13;;;;;;;0.40;0.40;;;;;;;16.67;56.81;100471.81;4844007;29;20054;-70
2022/10/09 08:36:42;;;;;;;0.40;0.40;;;;;;;16.70;56.47;100466.59;4843651;29;20050;-71
2022/10/09 08:39:11;;;;;;;0.30;0.30;;;;;;;16.77;55.84;100477.69;4843439;29;20042;-69
2022/10/09 08:41:43;;;;;;;14.57;0.95;;;;;;;16.77;55.53;100468.25;4843659;29;20045;-70
2022/10/09 08:44:19;;;;;;;0.60;0.60;;;;;;;16.82;55.51;100476.72;4843677;29;20050;-70
2022/10/09 08:47:03;;;;;;;0.60;0.60;;;;;;;16.96;55.41;100484.31;4843561;29;20404;-72
2022/10/09 08:49:42;;;;;;;3.92;0.93;;;;;;;17.00;54.87;100481.66;4843528;29;20046;-70
2022/10/09 08:52:22;;;;;;;0.50;0.50;;;;;;;17.06;54.37;100483.31;4842509;29;20058;-70
2022/10/09 08:54:51;;;;;;;;;;;;;;;17.06;54.04;100478.97;4843753;29;20515;-72
2022/10/09 08:57:22;;;;;;;0.77;0.77;;;;;;;17.12;54.46;100481.50;4843326;29;19925;-71
2022/10/09 08:59:53;;;;;;;0.38;0.38;;;;;;;17.13;53.91;100472.84;4843256;29;20053;-71
2022/10/09 09:02:33;;;;;;;0.40;0.40;;;;;;;17.23;53.77;100487.34;4843553;29;20140;-71
2022/10/09 09:05:19;;;;;;;0.60;0.60;;;;;;;17.26;53.26;100489.88;4843398;29;20088;-71
2022/10/09 09:07:55;;;;;;;0.50;0.50;;;;;;;17.27;53.17;100491.59;4843106;29;20110;-70
2022/10/09 09:10:37;;;;;;;0.50;0.50;;;;;;;17.28;52.83;100488.13;4843415;29;20053;-70
2022/10/09 09:13:19;;;;;;;0.40;0.40;;;;;;;17.28;52.52;100502.75;4843338;29;20454;-70
2022/10/09 09:15:55;;;;;;;0.60;0.60;;;;;;;17.31;52.32;100493.25;4843198;29;20054;-70
2022/10/09 09:18:37;;;;;;;0.30;0.30;;;;;;;17.43;52.19;100503.38;4843082;29;20058;-69
2022/10/09 09:21:22;;;;;;;1.00;0.52;;;;;;;17.39;51.98;100496.56;4842717;29;20052;-70
2022/10/09 09:23:51;;;;;;;0.50;0.50;;;;;;;17.47;52.01;100509.34;4843079;29;20046;-71
2022/10/09 09:26:21;;;;;;;1.13;1.00;;;;;;;17.48;51.80;100505.03;4842852;29;20137;-69
2022/10/09 09:28:56;;;;;;;0.40;0.40;;;;;;;17.59;51.77;100500.59;4843224;29;20057;-70
2022/10/09 09:31:30;;;;;;;0.65;0.65;;;;;;;17.63;51.36;100494.50;4843210;29;20129;-70
2022/10/09 09:34:04;;;;;;;0.50;0.50;;;;;;;17.74;51.34;100500.31;4843102;29;20049;-71
2022/10/09 09:36:38;;;;;;;0.40;0.40;;;;;;;17.82;50.92;100506.22;4842868;29;20054;-70
2022/10/09 09:39:10;;;;;;;0.50;0.50;;;;;;;17.82;49.65;100501.94;4841740;29;20086;-68
2022/10/09 09:42:05;;;;;;;0.50;0.50;;;;;;;17.55;49.10;100492.03;4842580;29;20484;-69
2022/10/09 09:44:36;;;;;;;0.40;0.40;;;;;;;17.61;49.66;100506.59;4842728;29;20057;-70
2022/10/09 09:47:14;;;;;;;0.30;0.30;;;;;;;17.74;50.25;100518.41;4842977;29;20042;-69
2022/10/09 09:49:55;;;;;;;0.40;0.40;;;;;;;17.81;49.74;100514.84;4842728;29;20114;-69
2022/10/09 09:52:27;;;;;;;2.00;0.90;;;;;;;17.84;49.48;100512.22;4842637;29;20088;-70
2022/10/09 09:54:57;;;;;;;0.43;0.43;;;;;;;17.93;48.78;100512.91;4842637;29;20054;-70
2022/10/09 09:57:33;;;;;;;0.40;0.40;;;;;;;17.92;48.22;100505.19;4842754;29;20050;-70
2022/10/09 10:00:20;;;;;;;0.60;0.60;;;;;;;18.00;47.79;100503.31;4842807;29;20043;-70
2022/10/09 10:03:02;;;;;;;0.55;0.55;;;;;;;17.94;47.39;100506.03;4841756;29;20058;-69
2022/10/09 10:05:36;;;;;;;0.47;0.47;;;;;;;18.02;48.03;100501.56;4842532;29;20127;-68
2022/10/09 10:08:20;;;;;;;0.35;0.35;;;;;;;18.10;47.64;100507.44;4842781;29;20058;-68
2022/10/09 10:10:51;;;;;;;0.40;0.40;;;;;;;18.20;48.35;100503.81;4842871;29;20050;-69
2022/10/09 10:13:23;;;;;;;0.40;0.40;;;;;;;18.25;47.64;100496.84;4842811;29;20537;-72
2022/10/09 10:15:54;;;;;;;0.50;0.50;;;;;;;18.16;47.72;100468.59;4841232;29;20467;-70
2022/10/09 10:18:28;;;;;;;0.60;0.60;;;;;;;18.39;47.53;100500.00;4845106;29;20066;-70
2022/10/09 10:21:02;;;;;;;0.60;0.60;;;;;;;18.34;47.13;100496.66;4846047;29;20054;-69
2022/10/09 10:23:37;;;;;;;3.08;0.70;;;;;;;18.42;46.74;100492.19;4846331;29;20046;-71
2022/10/09 10:26:13;;;;;;;2.30;0.75;;;;;;;18.62;46.53;100505.59;4845907;29;20492;-69
2022/10/09 10:28:49;;;;;;;0.63;0.63;;;;;;;18.67;46.38;100506.34;4845931;29;20046;-70
2022/10/09 10:31:38;;;;;;;0.35;0.35;;;;;;;18.66;46.36;100501.22;4846150;29;20128;-69
2022/10/09 10:34:17;;;;;;;0.47;0.47;;;;;;;18.68;46.27;100508.06;4845770;29;20061;-69
2022/10/09 10:36:46;;;;;;;0.57;0.57;;;;;;;18.78;46.05;100510.47;4846067;29;20056;-69
2022/10/09 10:39:22;;;;;;;;;;;;;;;18.83;45.46;100500.88;4846010;29;20054;-70
2022/10/09 10:41:57;;;;;;;0.70;0.70;;;;;;;19.05;45.29;100508.13;4845713;29;19931;-69
2022/10/09 10:44:43;;;;;;;0.40;0.40;;;;;;;19.13;44.99;100502.78;4845610;29;20057;-70
2022/10/09 10:47:18;;;;;;;0.70;0.70;;;;;;;19.29;44.81;100501.56;4845848;29;20053;-69
2022/10/09 10:49:49;;;;;;;0.40;0.40;;;;;;;19.26;44.72;100467.97;4845787;29;20050;-69
2022/10/09 10:52:34;;;;;;;0.40;0.40;;;;;;;19.21;44.56;100499.16;4845710;29;20045;-69
2022/10/09 10:55:21;;;;;;;0.60;0.60;;;;;;;19.30;44.09;100482.53;4845494;29;20401;-72
2022/10/09 10:57:57;;;;;;;0.45;0.45;;;;;;;19.25;43.81;100468.84;4845388;29;20053;-69
2022/10/09 11:00:27;;;;;;;0.82;0.68;;;;;;;19.43;43.68;100485.75;4845379;29;20081;-70
2022/10/09 11:03:13;;;;;;;0.60;0.60;;;;;;;19.47;43.59;100488.22;4845341;29;20054;-68
2022/10/09 11:05:49;;;;;;;0.50;0.50;;;;;;;19.54;43.51;100476.81;4844455;29;20085;-69
2022/10/09 11:08:43;;;;;;;0.50;0.50;;;;;;;19.71;43.25;100485.03;4845219;29;20085;-69
2022/10/09 11:11:20;;;;;;;0.50;0.50;;;;;;;19.84;43.37;100485.56;4845194;29;20050;-70
2022/10/09 11:14:00;;;;;;;0.55;0.55;;;;;;;19.66;42.77;100486.88;4844194;29;20050;-68
2022/10/09 11:16:41;;;;;;;1.77;0.60;;;;;;;19.66;42.86;100481.69;4845362;29;20049;-69
2022/10/09 11:19:41;;;;;;;0.55;0.55;;;;;;;19.60;42.92;100474.09;4845320;29;20058;-68
2022/10/09 11:22:28;;;;;;;0.43;0.43;;;;;;;19.73;43.11;100462.50;4826932;29;20054;-68
2022/10/09 11:25:11;;;;;;;0.50;0.50;;;;;;;19.64;43.04;100452.41;4844935;29;20068;-70
2022/10/09 11:27:53;;;;;;;0.50;0.50;;;;;;;19.62;42.90;100454.19;4844102;29;20148;-68
2022/10/09 11:30:24;;;;;;;0.50;0.50;;;;;;;19.64;42.01;100457.56;4844834;29;20053;-70
2022/10/09 11:32:59;;;;;;;0.70;0.70;;;;;;;19.67;41.80;100457.50;4844832;29;20058;-70
2022/10/09 11:35:34;;;;;;;0.40;0.40;;;;;;;19.67;41.88;100457.50;4844726;29;20046;-68
2022/10/09 11:38:07;;;;;;;0.60;0.60;;;;;;;19.73;41.82;100453.88;4843883;29;20077;-71
2022/10/09 11:40:42;;;;;;;0.40;0.40;;;;;;;19.80;41.67;100450.25;4844812;29;20128;-72
2022/10/09 11:43:40;;;;;;;0.88;0.88;;;;;;;19.90;42.37;100439.63;4844592;29;20054;-70
2022/10/09 11:46:17;;;;;;;0.50;0.50;;;;;;;19.94;41.85;100436.03;4844612;29;20052;-70
2022/10/09 11:48:54;;;;;;;0.57;0.57;;;;;;;19.78;41.19;100408.00;4844818;29;20077;-71
2022/10/09 11:51:32;;;;;;;0.57;0.57;;;;;;;19.76;41.62;100413.22;4844489;29;20046;-71
2022/10/09 11:54:05;;;;;;;0.50;0.50;;;;;;;19.76;41.50;100413.22;4844470;29;20140;-70
2022/10/09 11:56:34;;;;;;;0.40;0.40;;;;;;;19.86;41.70;100409.50;4844674;29;20058;-71
2022/10/09 11:59:05;;;;;;;0.50;0.50;;;;;;;19.93;41.04;100413.63;4844366;29;20038;-70
2022/10/09 12:01:36;;;;;;;0.40;0.40;;;;;;;19.77;40.41;100407.13;4844038;29;20382;-71